Michalis L — A8TZ8 — position and weather

sailwx.info

Track history (hours):
 
Tides and Currents Weather Stations Pressure Air Temp Water Temp Dewpoint Dewpoint Depression Visibility Wind Speed Wind Dir Waves Ship Positions

Michalis L

Last reported at 2016-Jun-21 16:33 UTC. Time now 2016-Jun-25 01:46 UTC.
Position S 30°16' E 031°04'.

Length 230 m; draft 7.6 m.

Type: Cargo ship. MMSI: 636014462.

Date/timePositionNaut miles runAvg speedWind from/ knotsBaromVisibWave heightAir tempDewpointWater temp
2016-Jun-21 16:33S 30°16' E 031°04'8 8.0
2016-Jun-21 15:33S 30°08' E 031°07'8 8.4
2016-Jun-21 14:33S 30°00' E 031°10'8 8.2
2016-Jun-21 13:33S 29°52' E 031°12'2 1.8
2016-Jun-21 12:33S 29°52' E 031°10'1 0.6
2016-Jun-21 11:33S 29°51' E 031°10'0 0.4
2016-Jun-21 10:33S 29°51' E 031°10'4 3.9
2016-Jun-21 09:33S 29°50' E 031°14'5 5.1
2016-Jun-21 08:33S 29°48' E 031°20'9 9.0
2016-Jun-21 07:33S 29°43' E 031°28'6 6.1
2016-Jun-21 06:33S 29°37' E 031°32'10 4.7
2016-Jun-21 04:31S 29°33' E 031°41'1 1.3
2016-Jun-21 03:31S 29°33' E 031°43'2 1.5
2016-Jun-21 02:28S 29°33' E 031°45'2 1.9
2016-Jun-21 01:31S 29°34' E 031°47'2 2.2
2016-Jun-21 00:31S 29°33' E 031°49'2 2.4
2016-Jun-20 23:31S 29°33' E 031°52'2 2.4
2016-Jun-20 22:28S 29°32' E 031°55'2 2.4
2016-Jun-20 21:33S 29°31' E 031°57'11810.4
2016-Jun-20 10:15S 28°08' E 033°33'2411.9
2016-Jun-20 08:12S 27°50' E 033°51'9612.0
2016-Jun-20 00:14S 26°37' E 035°02'911.7
2016-Jun-19 23:30S 26°31' E 035°08'1212.4
2016-Jun-19 22:33S 26°22' E 035°17'1312.5
2016-Jun-19 21:33S 26°12' E 035°25'2612.5
2016-Jun-19 19:29S 25°49' E 035°39'2812.1
2016-Jun-19 17:13S 25°25' E 035°52'  
Track history (hours):
 
Tides and Currents Weather Stations Pressure Air Temp Water Temp Dewpoint Dewpoint Depression Visibility Wind Speed Wind Dir Waves Ship Positions

Michalis L

Last reported at 2016-Jun-21 16:33 UTC. Time now 2016-Jun-25 01:46 UTC.
Position S 30°16' E 031°04'.

Length 230 m; draft 7.6 m.

Type: Cargo ship. MMSI: 636014462.

Date/timePositionNaut miles runAvg speedWind from/ knotsBaromVisibWave heightAir tempDewpointWater temp
2016-Jun-21 16:33S 30°16' E 031°04'8 8.0
2016-Jun-21 15:33S 30°08' E 031°07'8 8.4
2016-Jun-21 14:33S 30°00' E 031°10'8 8.2
2016-Jun-21 13:33S 29°52' E 031°12'2 1.8
2016-Jun-21 12:33S 29°52' E 031°10'1 0.6
2016-Jun-21 11:33S 29°51' E 031°10'0 0.4
2016-Jun-21 10:33S 29°51' E 031°10'4 3.9
2016-Jun-21 09:33S 29°50' E 031°14'5 5.1
2016-Jun-21 08:33S 29°48' E 031°20'9 9.0
2016-Jun-21 07:33S 29°43' E 031°28'6 6.1
2016-Jun-21 06:33S 29°37' E 031°32'10 4.7
2016-Jun-21 04:31S 29°33' E 031°41'1 1.3
2016-Jun-21 03:31S 29°33' E 031°43'2 1.5
2016-Jun-21 02:28S 29°33' E 031°45'2 1.9
2016-Jun-21 01:31S 29°34' E 031°47'2 2.2
2016-Jun-21 00:31S 29°33' E 031°49'2 2.4
2016-Jun-20 23:31S 29°33' E 031°52'2 2.4
2016-Jun-20 22:28S 29°32' E 031°55'2 2.4
2016-Jun-20 21:33S 29°31' E 031°57'11810.4
2016-Jun-20 10:15S 28°08' E 033°33'2411.9
2016-Jun-20 08:12S 27°50' E 033°51'9612.0
2016-Jun-20 00:14S 26°37' E 035°02'911.7
2016-Jun-19 23:30S 26°31' E 035°08'1212.4
2016-Jun-19 22:33S 26°22' E 035°17'1312.5
2016-Jun-19 21:33S 26°12' E 035°25'2612.5
2016-Jun-19 19:29S 25°49' E 035°39'2812.1
2016-Jun-19 17:13S 25°25' E 035°52'  

Dump ship's entire track history